Strona główna
METAR-TAF:

METAR-TAF

Lotnisko :

Westerly State Airport

Westerly, Rhode Island, Stany Zjednoczone

Szerokość geograficzna: 41-20-59N, Długość geograficzna: 071-47-56W, wysokość: 24 m

Aktualna obserwacja pogody

Raport powstał 14 minut temu, godzina 11:25 UTC
Cisza
Temperatura 6°C
Wilgotność 87%
Ciśnienie 1007 hPa
Widzialność: 2.8 km
Mało chmury na wysokości 300 ft
Przerywane chmury na wysokości 1000 ft
Zachmurzenie całkowite na wysokości 1400 ft
zamglenie

METAR: KWST 191125Z AUTO 00000KT 1 3/4SM BR FEW003 BKN010 OVC014 06/04 A2975 RMK AO2 T00610039

czas: 06:39 (11:39 UTC)


TAF: brakujący

Obserwacja i prognoza pogody dla ponad 4000 lotnisk (raport METAR i TAF).

Dostępne stacje oznaczono żółtymi i czerwonymi punktami na mapie.

Najedź kursorem aby zobaczyć nazwę stacji.

Kliknij aby zobaczyć obserwacje i prognozy pogody.

Aby zmienić mapę: kliknij na zielony przycisk z czarnym krzyżykiem, aby powiększyć; na zielony przycisk z myślnikiem, aby pomniejszyć; na zielone strzałki, aby przejść do map sąsiednich.


METAR-TAF: